createdAt,value
2023-01-11T00:01:32.442Z,8.40
2023-01-11T00:04:02.308Z,8.40
2023-01-11T00:06:30.375Z,8.40
2023-01-11T00:08:59.870Z,8.40
2023-01-11T00:11:28.195Z,8.40
2023-01-11T00:14:16.663Z,8.40
2023-01-11T00:16:44.760Z,8.50
2023-01-11T00:19:13.450Z,8.50
2023-01-11T00:21:41.583Z,8.50
2023-01-11T00:24:10.959Z,8.50
2023-01-11T00:26:38.971Z,8.50
2023-01-11T00:29:07.018Z,8.50
2023-01-11T00:31:40.262Z,8.50
2023-01-11T00:34:08.404Z,8.50
2023-01-11T00:36:36.331Z,8.50
2023-01-11T00:39:04.459Z,8.50
2023-01-11T00:41:51.069Z,8.50
2023-01-11T00:44:36.720Z,8.50
2023-01-11T00:47:23.001Z,8.50
2023-01-11T00:49:51.429Z,8.50
2023-01-11T00:52:21.586Z,8.50
2023-01-11T00:54:49.670Z,8.60
2023-01-11T00:57:19.293Z,8.50
2023-01-11T01:00:12.753Z,8.60
2023-01-11T01:03:00.201Z,8.60
2023-01-11T01:05:28.857Z,8.60
2023-01-11T01:07:56.836Z,8.60
2023-01-11T01:10:24.821Z,8.60
2023-01-11T01:16:54.683Z,8.70
2023-01-11T01:19:23.480Z,8.70
2023-01-11T01:21:51.746Z,8.70
2023-01-11T01:24:43.668Z,8.70
2023-01-11T01:27:36.239Z,8.70
2023-01-11T01:30:05.034Z,8.70
2023-01-11T01:32:34.698Z,8.80
2023-01-11T01:35:02.728Z,8.80
2023-01-11T01:37:30.761Z,8.80
2023-01-11T01:39:58.721Z,8.80
2023-01-11T01:42:26.744Z,8.80
2023-01-11T01:45:07.328Z,8.80
2023-01-11T01:47:44.108Z,8.90
2023-01-11T01:50:16.980Z,8.90
2023-01-11T01:52:47.733Z,8.90
2023-01-11T01:55:22.106Z,8.80
2023-01-11T01:57:51.543Z,8.80
2023-01-11T02:00:20.165Z,8.80
2023-01-11T02:03:04.560Z,8.80
2023-01-11T02:05:32.813Z,8.80
2023-01-11T02:08:04.376Z,8.90
2023-01-11T02:10:34.184Z,8.90
2023-01-11T15:26:52.868Z,10.20
2023-01-11T15:29:27.319Z,10.20
2023-01-11T15:32:14.212Z,10.20
2023-01-11T15:34:44.962Z,10.10
2023-01-11T15:37:43.092Z,10.10
2023-01-11T15:40:18.604Z,10.10
2023-01-11T15:43:17.838Z,10.10
2023-01-11T15:46:30.361Z,10.10
2023-01-11T15:49:26.246Z,10.10
2023-01-11T15:52:09.531Z,10.10
2023-01-11T15:55:15.991Z,10.10
2023-01-11T15:58:25.553Z,10.10
2023-01-11T16:01:22.664Z,10.10
2023-01-11T16:03:59.689Z,10.00
2023-01-11T16:06:38.487Z,10.00
2023-01-11T16:09:23.101Z,10.00
2023-01-11T16:12:00.509Z,10.00
2023-01-11T16:14:42.176Z,10.00
2023-01-11T16:17:13.846Z,10.00
2023-01-11T16:19:47.778Z,10.10
2023-01-11T16:22:19.555Z,10.00
2023-01-11T16:24:50.426Z,10.00
2023-01-11T16:27:24.902Z,10.00
2023-01-11T16:29:54.928Z,10.00
2023-01-11T16:32:26.910Z,10.00
2023-01-11T16:34:55.814Z,10.00
2023-01-11T16:37:32.568Z,9.90
2023-01-11T16:40:09.674Z,10.00
2023-01-11T16:42:43.677Z,9.90
2023-01-11T16:45:19.689Z,10.00
2023-01-11T16:48:03.862Z,10.00
2023-01-11T16:50:33.104Z,9.90
2023-01-11T16:53:03.094Z,9.80
2023-01-11T16:55:37.843Z,9.80
2023-01-11T16:58:08.086Z,9.80
2023-01-11T17:00:39.750Z,9.80
2023-01-11T17:03:23.935Z,9.80
2023-01-11T17:05:58.229Z,9.80
2023-01-11T17:08:32.202Z,9.80
2023-01-11T17:11:04.130Z,9.90
2023-01-11T17:13:54.568Z,9.80
2023-01-11T17:16:28.675Z,9.90
2023-01-11T17:18:59.430Z,9.90
2023-01-11T17:21:29.272Z,9.90
2023-01-11T17:24:03.685Z,9.80
2023-01-11T17:26:39.047Z,9.80
2023-01-11T17:29:07.797Z,9.80
2023-01-11T17:31:38.332Z,9.70
2023-01-11T17:34:09.348Z,9.70
2023-01-11T17:36:38.216Z,9.80
2023-01-11T17:39:07.441Z,9.80
2023-01-11T17:41:53.222Z,9.70
2023-01-11T17:44:41.782Z,9.70
2023-01-11T17:47:13.302Z,9.80
2023-01-11T17:49:41.533Z,9.80
2023-01-11T17:52:19.314Z,9.70
2023-01-11T17:54:47.636Z,9.70
2023-01-11T17:57:18.500Z,9.70
2023-01-11T17:59:46.601Z,9.70
2023-01-11T18:02:16.051Z,9.60
2023-01-11T18:04:44.439Z,9.60
2023-01-11T18:07:18.231Z,9.60
2023-01-11T18:09:48.904Z,9.50
2023-01-11T18:12:20.824Z,9.50
2023-01-11T18:14:53.318Z,9.50
2023-01-11T18:17:36.154Z,9.40
2023-01-11T18:20:25.814Z,9.40
2023-01-11T18:23:04.639Z,9.40
2023-01-11T18:25:35.067Z,9.40
2023-01-11T18:28:36.539Z,9.30
2023-01-11T18:31:05.225Z,9.20
2023-01-11T18:33:35.101Z,9.20
2023-01-11T18:36:04.737Z,9.20
2023-01-11T18:38:35.948Z,9.20
2023-01-11T18:41:39.442Z,9.20
2023-01-11T18:44:09.154Z,9.20
2023-01-11T18:46:38.052Z,9.30
2023-01-11T18:49:06.072Z,9.20
2023-01-11T18:51:36.951Z,9.20
2023-01-11T18:54:06.831Z,9.20
2023-01-11T18:56:34.848Z,9.20
2023-01-11T18:59:02.846Z,9.20
2023-01-11T19:01:35.259Z,9.20
2023-01-11T19:04:10.171Z,9.20
2023-01-11T19:06:38.214Z,9.30
2023-01-11T19:09:08.038Z,9.20
2023-01-11T19:11:36.248Z,9.20
2023-01-11T19:14:04.282Z,9.10
2023-01-11T19:16:32.381Z,9.20
2023-01-11T19:19:00.428Z,9.10
2023-01-11T19:21:28.364Z,9.20
2023-01-11T19:23:56.415Z,9.10
2023-01-11T19:26:27.699Z,9.20
2023-01-11T19:28:55.800Z,9.20
2023-01-11T19:31:24.126Z,9.20
2023-01-11T19:33:52.384Z,9.10
2023-01-11T19:36:20.816Z,9.20
2023-01-11T19:38:49.337Z,9.20
2023-01-11T19:41:22.126Z,9.20
2023-01-11T19:43:52.003Z,9.20
2023-01-11T19:46:31.290Z,9.20
2023-01-11T19:49:00.003Z,9.10
2023-01-11T19:51:28.234Z,9.10
2023-01-11T19:53:56.082Z,9.10
2023-01-11T19:56:24.167Z,9.10
2023-01-11T19:58:53.598Z,9.00
2023-01-11T20:01:21.655Z,9.00
2023-01-11T20:03:49.624Z,9.00
2023-01-11T20:06:18.020Z,9.00
2023-01-11T20:08:46.277Z,9.00
2023-01-11T20:11:16.380Z,9.00
2023-01-11T20:13:50.373Z,9.00
2023-01-11T20:16:21.797Z,9.00
2023-01-11T20:18:53.845Z,9.00
2023-01-11T20:21:22.591Z,9.00
2023-01-11T20:23:52.136Z,9.00
2023-01-11T20:26:20.166Z,9.00
2023-01-11T20:28:52.196Z,8.90
2023-01-11T20:31:21.891Z,9.00
2023-01-11T20:33:49.972Z,8.90
2023-01-11T20:36:18.997Z,8.90
2023-01-11T20:38:47.778Z,8.90
2023-01-11T20:41:37.870Z,8.90
2023-01-11T20:44:06.894Z,8.90
2023-01-11T20:46:38.096Z,8.90
2023-01-11T20:49:07.443Z,8.90
2023-01-11T20:51:35.806Z,8.90
2023-01-11T20:54:05.502Z,8.90
2023-01-11T20:56:34.374Z,8.90
2023-01-11T20:59:02.755Z,9.00
2023-01-11T21:01:31.270Z,8.90
2023-01-11T21:04:03.333Z,8.90
2023-01-11T21:06:32.652Z,8.90
2023-01-11T21:09:03.015Z,8.90
2023-01-11T21:11:32.223Z,8.90
2023-01-11T21:14:01.809Z,8.80
2023-01-11T21:16:30.951Z,8.80
2023-01-11T21:19:01.929Z,8.80
2023-01-11T21:21:31.348Z,8.70
2023-01-11T21:24:00.985Z,8.70
2023-01-11T21:31:15.234Z,8.70
2023-01-11T21:33:44.589Z,8.70
2023-01-11T21:37:04.884Z,8.60
2023-01-11T21:39:34.570Z,8.60
2023-01-11T21:42:03.589Z,8.70
2023-01-11T21:44:33.665Z,8.60
2023-01-11T21:47:03.141Z,8.60
2023-01-11T21:49:31.524Z,8.60
2023-01-11T21:51:59.946Z,8.60
2023-01-11T21:54:28.017Z,8.50
2023-01-11T21:56:57.698Z,8.50
2023-01-11T21:59:27.537Z,8.50
2023-01-11T22:14:41.625Z,8.30
2023-01-11T22:17:11.140Z,8.30
2023-01-11T22:19:39.244Z,8.20
2023-01-11T22:22:07.390Z,8.20
2023-01-11T22:24:42.714Z,8.20
2023-01-11T22:27:10.790Z,8.20
2023-01-11T22:29:38.863Z,8.10
2023-01-11T22:32:07.299Z,8.10
2023-01-11T22:34:39.225Z,8.10
2023-01-11T22:37:07.946Z,8.00
2023-01-11T22:39:37.806Z,8.00
2023-01-11T22:42:06.458Z,8.10
2023-01-11T22:44:34.597Z,8.00
2023-01-11T22:47:02.884Z,8.00
2023-01-11T22:49:31.372Z,8.00
2023-01-11T22:52:00.879Z,8.00
2023-01-11T22:54:28.983Z,8.10
2023-01-11T22:56:57.048Z,8.10
2023-01-11T22:59:25.692Z,8.10
2023-01-11T23:01:53.799Z,8.00
2023-01-11T23:04:21.951Z,8.00
2023-01-11T23:06:49.955Z,8.00
2023-01-11T23:09:19.633Z,8.00
2023-01-11T23:12:05.230Z,8.00
2023-01-11T23:14:33.950Z,8.00
2023-01-11T23:17:04.332Z,8.10
2023-01-11T23:19:33.164Z,8.10
2023-01-11T23:22:01.812Z,8.20
2023-01-11T23:24:31.300Z,8.30
2023-01-11T23:26:59.718Z,8.30
2023-01-11T23:29:28.039Z,8.30
2023-01-11T23:31:56.111Z,8.40
2023-01-11T23:34:24.397Z,8.40
2023-01-11T23:36:52.322Z,8.40
2023-01-11T23:39:20.556Z,8.50
2023-01-11T23:42:07.618Z,8.40
2023-01-11T23:44:36.172Z,8.50
2023-01-11T23:47:29.830Z,8.40
2023-01-11T23:50:00.305Z,8.50
2023-01-11T23:52:30.265Z,8.60
2023-01-11T23:54:58.321Z,8.70
2023-01-11T23:57:27.966Z,8.70
2023-01-11T23:59:55.921Z,8.70
